createdAt,value
2018-02-23T00:02:16.975Z,95532.55
2018-02-23T00:04:45.329Z,95529.78
2018-02-23T00:07:13.671Z,95528.50
2018-02-23T00:09:42.027Z,95526.95
2018-02-23T00:12:10.359Z,95535.75
2018-02-23T00:14:38.723Z,95530.00
2018-02-23T00:17:07.050Z,95530.45
2018-02-23T00:19:35.420Z,95534.66
2018-02-23T00:22:03.768Z,95527.96
2018-02-23T00:24:32.140Z,95538.26
2018-02-23T00:27:00.490Z,95537.04
2018-02-23T00:29:28.878Z,95536.67
2018-02-23T00:31:57.227Z,95528.77
2018-02-23T00:34:25.654Z,95531.05
2018-02-23T00:36:54.009Z,95526.16
2018-02-23T00:39:22.359Z,95536.49
2018-02-23T00:41:50.726Z,95523.81
2018-02-23T00:44:19.068Z,95531.80
2018-02-23T00:46:47.431Z,95522.81
2018-02-23T00:49:15.791Z,95531.12
2018-02-23T00:51:44.170Z,95522.95
2018-02-23T00:54:12.502Z,95527.63
2018-02-23T00:56:40.898Z,95527.95
2018-02-23T00:59:09.245Z,95531.75
2018-02-23T01:01:37.566Z,95530.62
2018-02-23T01:04:05.930Z,95529.79
2018-02-23T01:06:34.259Z,95531.81
2018-02-23T01:09:02.640Z,95534.70
2018-02-23T01:11:30.965Z,95533.16
2018-02-23T01:13:59.332Z,95525.05
2018-02-23T01:16:27.684Z,95522.42
2018-02-23T01:18:56.055Z,95522.66
2018-02-23T01:21:24.507Z,95525.43
2018-02-23T01:23:52.839Z,95529.45
2018-02-23T01:26:21.207Z,95521.49
2018-02-23T01:28:49.537Z,95526.00
2018-02-23T01:31:17.895Z,95522.61
2018-02-23T01:33:46.246Z,95519.30
2018-02-23T01:36:14.618Z,95516.19
2018-02-23T01:38:42.963Z,95515.38
2018-02-23T01:41:11.335Z,95512.48
2018-02-23T01:43:39.682Z,95504.63
2018-02-23T01:46:08.084Z,95502.52
2018-02-23T01:48:36.407Z,95507.62
2018-02-23T01:51:04.776Z,95503.31
2018-02-23T01:53:33.119Z,95498.77
2018-02-23T01:56:01.477Z,95499.06
2018-02-23T01:58:29.824Z,95495.69
2018-02-23T02:00:58.160Z,95499.13
2018-02-23T02:03:26.527Z,95501.09
2018-02-23T02:05:54.877Z,95494.05
2018-02-23T02:08:23.238Z,95493.20
2018-02-23T02:10:51.586Z,95486.19
2018-02-23T02:13:19.966Z,95488.23
2018-02-23T02:15:48.382Z,95481.43
2018-02-23T02:18:16.778Z,95479.35
2018-02-23T02:20:45.074Z,95480.42
2018-02-23T02:23:13.446Z,95480.86
2018-02-23T02:25:41.798Z,95470.09
2018-02-23T02:28:10.184Z,95468.72
2018-02-23T02:30:38.556Z,95471.78
2018-02-23T02:33:06.908Z,95469.88
2018-02-23T02:35:35.267Z,95463.08
2018-02-23T02:38:03.652Z,95464.70
2018-02-23T02:40:32.028Z,95458.03
2018-02-23T02:43:00.385Z,95458.97
2018-02-23T02:45:28.736Z,95457.55
2018-02-23T02:47:57.066Z,95458.40
2018-02-23T02:50:25.449Z,95459.41
2018-02-23T02:52:53.770Z,95464.84
2018-02-23T02:55:22.146Z,95460.20
2018-02-23T02:57:50.495Z,95465.97
2018-02-23T03:00:18.846Z,95468.34
2018-02-23T03:02:47.210Z,95462.82
2018-02-23T03:05:15.554Z,95463.11
2018-02-23T03:07:43.898Z,95460.66
2018-02-23T03:10:12.244Z,95466.31
2018-02-23T03:12:40.600Z,95458.54
2018-02-23T03:15:08.932Z,95455.73
2018-02-23T03:17:37.290Z,95466.78
2018-02-23T03:20:05.667Z,95463.16
2018-02-23T03:22:34.035Z,95458.83
2018-02-23T03:25:02.369Z,95460.31
2018-02-23T03:27:30.747Z,95458.01
2018-02-23T03:29:59.089Z,95456.39
2018-02-23T03:32:27.440Z,95461.18
2018-02-23T03:34:55.810Z,95453.62
2018-02-23T03:37:24.233Z,95452.94
2018-02-23T03:39:52.594Z,95450.87
2018-02-23T03:42:20.942Z,95448.06
2018-02-23T03:44:49.300Z,95450.95
2018-02-23T03:47:17.634Z,95451.30
2018-02-23T03:49:46.004Z,95448.45
2018-02-23T03:52:14.340Z,95444.12
2018-02-23T03:54:42.745Z,95440.62
2018-02-23T03:57:11.103Z,95447.62
2018-02-23T03:59:39.441Z,95443.83
2018-02-23T04:02:07.803Z,95445.00
2018-02-23T04:04:36.156Z,95447.31
2018-02-23T04:07:04.507Z,95442.22
2018-02-23T04:09:32.851Z,95443.03
2018-02-23T04:12:01.263Z,95439.64
2018-02-23T04:14:29.582Z,95441.28
2018-02-23T04:16:57.966Z,95442.41
2018-02-23T04:19:26.791Z,95434.31
2018-02-23T04:21:55.108Z,95442.49
2018-02-23T04:24:23.470Z,95441.34
2018-02-23T04:26:51.810Z,95440.97
2018-02-23T04:29:20.204Z,95438.52
2018-02-23T04:31:48.534Z,95441.40
2018-02-23T04:34:16.888Z,95439.34
2018-02-23T04:36:45.211Z,95440.88
2018-02-23T04:39:13.569Z,95450.58
2018-02-23T04:41:41.908Z,95455.33
2018-02-23T04:44:10.322Z,95448.78
2018-02-23T04:46:38.707Z,95450.09
2018-02-23T04:49:07.055Z,95447.90
2018-02-23T04:51:35.401Z,95455.12
2018-02-23T04:54:03.731Z,95450.79
2018-02-23T04:56:32.090Z,95450.55
2018-02-23T04:59:00.427Z,95460.16
2018-02-23T05:01:28.790Z,95454.88
2018-02-23T05:03:57.267Z,95449.78
2018-02-23T05:06:25.608Z,95458.77
2018-02-23T05:08:53.950Z,95457.89
2018-02-23T05:11:22.318Z,95452.09
2018-02-23T05:13:50.705Z,95450.20
2018-02-23T05:16:19.055Z,95451.13
2018-02-23T05:18:47.465Z,95448.73
2018-02-23T05:21:15.831Z,95458.87
2018-02-23T05:23:44.169Z,95464.31
2018-02-23T05:26:12.503Z,95465.75
2018-02-23T05:28:40.851Z,95458.86
2018-02-23T05:31:09.179Z,95454.36
2018-02-23T05:33:37.531Z,95459.11
2018-02-23T05:36:05.955Z,95456.77
2018-02-23T05:38:34.308Z,95453.20
2018-02-23T05:41:02.646Z,95454.53
2018-02-23T05:43:31.120Z,95457.75
2018-02-23T05:45:59.466Z,95458.98
2018-02-23T05:48:27.813Z,95457.09
2018-02-23T05:50:56.140Z,95449.09
2018-02-23T05:53:24.500Z,95457.02
2018-02-23T05:55:52.827Z,95459.73
2018-02-23T05:58:21.147Z,95464.86
2018-02-23T06:00:49.515Z,95466.44
2018-02-23T06:03:17.855Z,95469.50
2018-02-23T06:05:46.215Z,95464.16
2018-02-23T06:08:14.563Z,95466.98
2018-02-23T06:10:42.927Z,95475.38
2018-02-23T06:13:11.274Z,95472.15
2018-02-23T06:15:45.348Z,95474.64
2018-02-23T06:18:13.689Z,95467.20
2018-02-23T06:20:42.039Z,95467.89
2018-02-23T06:23:10.374Z,95479.41
2018-02-23T06:25:38.729Z,95479.73
2018-02-23T06:28:07.066Z,95482.95
2018-02-23T06:30:35.534Z,95487.33
2018-02-23T06:33:03.898Z,95494.02
2018-02-23T06:35:32.302Z,95489.07
2018-02-23T06:38:00.650Z,95485.95
2018-02-23T06:40:29.018Z,95490.57
2018-02-23T06:42:57.360Z,95485.17
2018-02-23T06:45:25.708Z,95487.48
2018-02-23T06:47:54.042Z,95483.41
2018-02-23T06:50:22.399Z,95480.20
2018-02-23T06:52:50.759Z,95481.87
2018-02-23T06:55:19.095Z,95484.08
2018-02-23T06:57:47.439Z,95485.91
2018-02-23T07:00:15.803Z,95489.15
2018-02-23T07:02:44.157Z,95489.94
2018-02-23T07:05:12.515Z,95491.61
2018-02-23T07:07:40.862Z,95492.38
2018-02-23T07:10:09.215Z,95482.07
2018-02-23T07:12:37.547Z,95483.88
2018-02-23T07:15:05.908Z,95481.00
2018-02-23T07:17:34.242Z,95476.14
2018-02-23T07:20:02.596Z,95479.69
2018-02-23T07:22:30.928Z,95485.69
2018-02-23T07:27:31.402Z,95491.55
2018-02-23T07:29:59.764Z,95483.45
2018-02-23T07:32:28.194Z,95478.95
2018-02-23T07:34:56.541Z,95492.64
2018-02-23T07:37:24.885Z,95482.89
2018-02-23T07:39:53.295Z,95489.47
2018-02-23T07:42:21.644Z,95492.66
2018-02-23T07:44:50.046Z,95492.17
2018-02-23T07:47:18.403Z,95497.81
2018-02-23T07:49:46.743Z,95498.97
2018-02-23T07:52:15.191Z,95508.22
2018-02-23T07:54:43.523Z,95500.12
2018-02-23T07:57:11.879Z,95497.22
2018-02-23T07:59:40.235Z,95507.40
2018-02-23T08:02:08.717Z,95506.91
2018-02-23T08:04:37.059Z,95511.83
2018-02-23T08:07:05.439Z,95512.79
2018-02-23T08:09:33.808Z,95508.59
2018-02-23T08:12:02.150Z,95511.48
2018-02-23T08:14:30.496Z,95516.73
2018-02-23T08:16:58.866Z,95510.70
2018-02-23T08:19:27.206Z,95513.78
2018-02-23T08:21:55.552Z,95524.23
2018-02-23T08:24:23.882Z,95518.94
2018-02-23T08:26:52.270Z,95515.45
2018-02-23T08:29:20.755Z,95512.88
2018-02-23T08:31:49.135Z,95514.05
2018-02-23T08:34:17.514Z,95526.03
2018-02-23T08:36:45.832Z,95529.28
2018-02-23T08:39:14.167Z,95531.06
2018-02-23T08:41:42.519Z,95529.63
2018-02-23T08:44:10.859Z,95528.27
2018-02-23T08:46:39.204Z,95531.38
2018-02-23T08:49:07.542Z,95537.68
2018-02-23T08:51:35.886Z,95543.00
2018-02-23T08:54:04.244Z,95535.89
2018-02-23T08:56:32.598Z,95532.41
2018-02-23T08:59:00.922Z,95535.84
2018-02-23T09:01:29.282Z,95533.06
2018-02-23T09:03:57.619Z,95532.68
2018-02-23T09:06:25.967Z,95542.04
2018-02-23T09:08:54.424Z,95537.20
2018-02-23T09:11:22.822Z,95543.75
2018-02-23T09:13:51.267Z,95540.78
2018-02-23T09:16:19.676Z,95542.34
2018-02-23T09:18:48.002Z,95546.31
2018-02-23T09:21:16.431Z,95546.61
2018-02-23T09:23:44.830Z,95549.55
2018-02-23T09:26:13.200Z,95557.67
2018-02-23T09:28:41.670Z,95560.09
2018-02-23T09:31:10.049Z,95562.18
2018-02-23T09:33:50.249Z,95563.25
2018-02-23T09:36:18.642Z,95561.01
2018-02-23T09:38:47.165Z,95561.69
2018-02-23T09:41:15.554Z,95546.05
2018-02-23T09:43:44.110Z,95556.73
2018-02-23T09:46:12.566Z,95554.62
2018-02-23T09:48:40.988Z,95557.97
2018-02-23T09:51:09.318Z,95559.05
2018-02-23T09:53:37.651Z,95556.79
2018-02-23T09:56:06.096Z,95562.69
2018-02-23T09:58:34.451Z,95555.47
2018-02-23T10:01:02.787Z,95562.20
2018-02-23T10:03:31.131Z,95555.39
2018-02-23T10:05:59.475Z,95546.28
2018-02-23T10:08:27.814Z,95547.75
2018-02-23T10:10:56.171Z,95554.56
2018-02-23T10:13:24.530Z,95561.04
2018-02-23T10:15:52.862Z,95560.03
2018-02-23T10:18:21.205Z,95552.61
2018-02-23T10:20:49.565Z,95552.14
2018-02-23T10:23:17.914Z,95554.66
2018-02-23T10:25:46.244Z,95556.87
2018-02-23T10:28:14.689Z,95564.97
2018-02-23T10:30:43.012Z,95559.52
2018-02-23T10:33:11.383Z,95562.65
2018-02-23T10:35:39.726Z,95565.58
2018-02-23T10:38:08.113Z,95561.23
2018-02-23T10:40:36.511Z,95557.44
2018-02-23T10:43:04.903Z,95556.87
2018-02-23T10:45:33.216Z,95557.85
2018-02-23T10:48:01.556Z,95566.50
2018-02-23T10:50:29.902Z,95566.59
2018-02-23T10:57:34.859Z,95561.86
2018-02-23T11:00:03.187Z,95562.21
2018-02-23T11:02:31.675Z,95562.46
2018-02-23T11:05:00.003Z,95563.79
2018-02-23T11:07:28.343Z,95574.48
2018-02-23T11:09:56.690Z,95575.09
2018-02-23T11:12:25.020Z,95569.22
2018-02-23T11:14:53.370Z,95566.50
2018-02-23T11:17:21.824Z,95564.70
2018-02-23T11:19:50.198Z,95561.64
2018-02-23T11:22:18.551Z,95566.95
2018-02-23T11:24:46.966Z,95565.11
2018-02-23T11:27:15.279Z,95561.64
2018-02-23T11:29:43.691Z,95559.49
2018-02-23T11:32:12.090Z,95549.17
2018-02-23T11:34:40.424Z,95543.48
2018-02-23T11:37:08.755Z,95532.89
2018-02-23T11:39:37.099Z,95535.92
2018-02-23T11:42:05.422Z,95535.41
2018-02-23T11:44:33.768Z,95534.19
2018-02-23T11:47:02.092Z,95532.13
2018-02-23T11:49:30.444Z,95538.80
2018-02-23T11:51:58.772Z,95541.03
2018-02-23T11:54:27.120Z,95533.27
2018-02-23T11:56:55.449Z,95543.80
2018-02-23T11:59:23.804Z,95551.75
2018-02-23T12:01:52.223Z,95557.97
2018-02-23T12:04:20.570Z,95559.58
2018-02-23T12:06:48.916Z,95561.09
2018-02-23T12:09:17.269Z,95564.00
2018-02-23T12:11:45.614Z,95575.67
2018-02-23T12:14:14.103Z,95572.63
2018-02-23T12:16:42.427Z,95570.03
2018-02-23T12:19:10.870Z,95577.34
2018-02-23T12:21:39.250Z,95579.85
2018-02-23T12:24:07.562Z,95584.33
2018-02-23T12:26:35.902Z,95578.08
2018-02-23T12:29:04.282Z,95574.06
2018-02-23T12:31:32.620Z,95563.62
2018-02-23T12:34:00.954Z,95551.62
2018-02-23T12:36:29.305Z,95548.71
2018-02-23T12:38:57.630Z,95554.95
2018-02-23T12:41:26.063Z,95546.41
2018-02-23T12:43:54.373Z,95553.12
2018-02-23T12:46:22.715Z,95563.94
2018-02-23T12:48:51.143Z,95558.83
2018-02-23T12:51:19.587Z,95553.60
2018-02-23T12:53:47.947Z,95551.63
2018-02-23T12:56:16.306Z,95549.80
2018-02-23T12:58:44.642Z,95558.37
2018-02-23T13:01:13.099Z,95559.69
2018-02-23T13:03:41.478Z,95573.06
2018-02-23T13:06:09.958Z,95574.44
2018-02-23T13:08:38.266Z,95569.03
2018-02-23T13:11:06.614Z,95569.69
2018-02-23T13:13:35.854Z,95574.86
2018-02-23T13:16:04.174Z,95568.92
2018-02-23T13:18:32.638Z,95575.89
2018-02-23T13:21:01.050Z,95572.55
2018-02-23T13:23:29.398Z,95567.07
2018-02-23T13:25:57.708Z,95558.70
2018-02-23T13:28:31.666Z,95559.05
2018-02-23T13:31:00.176Z,95571.53
2018-02-23T13:33:28.510Z,95561.95
2018-02-23T13:35:56.839Z,95557.31
2018-02-23T13:38:25.190Z,95548.75
2018-02-23T13:40:59.135Z,95551.19
2018-02-23T13:43:27.458Z,95554.84
2018-02-23T13:45:55.802Z,95552.70
2018-02-23T13:48:24.170Z,95562.67
2018-02-23T13:50:52.723Z,95562.00
2018-02-23T13:53:21.050Z,95567.88
2018-02-23T13:55:49.380Z,95569.05
2018-02-23T13:58:17.718Z,95570.88
2018-02-23T14:00:46.066Z,95571.28
2018-02-23T14:03:14.414Z,95571.63
2018-02-23T14:05:45.579Z,95570.70
2018-02-23T14:08:13.937Z,95571.30
2018-02-23T14:10:42.260Z,95571.50
2018-02-23T14:13:10.643Z,95566.08
2018-02-23T14:15:39.068Z,95570.73
2018-02-23T14:18:07.416Z,95572.38
2018-02-23T14:20:35.717Z,95579.09
2018-02-23T14:23:04.134Z,95579.39
2018-02-23T14:25:32.455Z,95567.76
2018-02-23T14:28:00.855Z,95574.59
2018-02-23T14:30:29.232Z,95569.03
2018-02-23T14:32:57.567Z,95568.42
2018-02-23T14:35:25.979Z,95571.23
2018-02-23T14:37:54.334Z,95566.52
2018-02-23T14:40:22.779Z,95561.14
2018-02-23T14:42:51.124Z,95556.51
2018-02-23T14:45:19.539Z,95559.56
2018-02-23T14:47:47.860Z,95561.09
2018-02-23T14:50:27.955Z,95562.41
2018-02-23T14:52:56.303Z,95556.89
2018-02-23T14:55:24.675Z,95554.27
2018-02-23T14:57:53.078Z,95545.28
2018-02-23T15:00:21.463Z,95546.16
2018-02-23T15:02:49.863Z,95540.86
2018-02-23T15:05:18.200Z,95549.17
2018-02-23T15:07:46.568Z,95538.06
2018-02-23T15:10:14.914Z,95533.20
2018-02-23T15:12:43.373Z,95534.06
2018-02-23T15:15:11.743Z,95533.65
2018-02-23T15:17:40.072Z,95530.95
2018-02-23T15:20:08.418Z,95528.79
2018-02-23T15:22:36.749Z,95530.20
2018-02-23T15:25:05.083Z,95536.97
2018-02-23T15:27:33.408Z,95533.72
2018-02-23T15:30:01.979Z,95530.23
2018-02-23T15:32:30.354Z,95535.25
2018-02-23T15:34:58.760Z,95533.30
2018-02-23T15:37:27.115Z,95529.82
2018-02-23T15:39:55.440Z,95536.11
2018-02-23T15:42:23.791Z,95533.89
2018-02-23T15:44:52.191Z,95539.52
2018-02-23T15:47:25.486Z,95537.78
2018-02-23T15:49:54.137Z,95537.92
2018-02-23T15:52:22.652Z,95544.90
2018-02-23T15:54:50.969Z,95542.73
2018-02-23T15:57:20.684Z,95552.28
2018-02-23T15:59:49.091Z,95547.67
2018-02-23T16:02:17.437Z,95565.41
2018-02-23T16:04:45.992Z,95561.58
2018-02-23T16:07:14.427Z,95558.03
2018-02-23T16:09:42.758Z,95562.81
2018-02-23T16:12:11.225Z,95565.38
2018-02-23T16:14:39.546Z,95568.56
2018-02-23T16:17:07.907Z,95562.67
2018-02-23T16:19:36.245Z,95570.00
2018-02-23T16:22:04.615Z,95566.95
2018-02-23T16:24:33.158Z,95564.42
2018-02-23T16:27:01.503Z,95573.01
2018-02-23T16:29:29.830Z,95586.20
2018-02-23T16:31:58.242Z,95584.95
2018-02-23T16:34:26.623Z,95576.43
2018-02-23T16:36:54.999Z,95575.78
2018-02-23T16:39:23.378Z,95579.81
2018-02-23T16:41:51.725Z,95577.86
2018-02-23T16:44:20.096Z,95585.59
2018-02-23T16:46:48.447Z,95586.31
2018-02-23T16:49:16.777Z,95592.98
2018-02-23T16:51:45.374Z,95589.46
2018-02-23T16:54:13.755Z,95583.54
2018-02-23T16:56:42.103Z,95581.69
2018-02-23T16:59:10.478Z,95587.34
2018-02-23T17:01:38.854Z,95578.89
2018-02-23T17:04:07.187Z,95579.81
2018-02-23T17:06:35.608Z,95594.52
2018-02-23T17:09:03.954Z,95590.45
2018-02-23T17:11:32.285Z,95599.81
2018-02-23T17:14:00.779Z,95597.97
2018-02-23T17:16:29.095Z,95597.30
2018-02-23T17:18:57.451Z,95600.46
2018-02-23T17:21:25.863Z,95596.67
2018-02-23T17:23:54.216Z,95597.57
2018-02-23T17:26:22.543Z,95596.70
2018-02-23T17:28:50.913Z,95597.97
2018-02-23T17:31:19.238Z,95602.45
2018-02-23T17:33:47.579Z,95603.25
2018-02-23T17:36:15.912Z,95593.73
2018-02-23T17:38:44.255Z,95597.53
2018-02-23T17:41:12.653Z,95603.52
2018-02-23T17:43:40.949Z,95591.69
2018-02-23T17:46:09.277Z,95598.53
2018-02-23T17:48:37.668Z,95600.38
2018-02-23T17:51:05.985Z,95599.20
2018-02-23T17:53:34.335Z,95599.65
2018-02-23T17:56:02.675Z,95592.23
2018-02-23T17:58:31.012Z,95590.55
2018-02-23T18:00:59.369Z,95596.02
2018-02-23T18:03:27.841Z,95603.01
2018-02-23T18:05:56.163Z,95599.86
2018-02-23T18:08:24.507Z,95597.19
2018-02-23T18:10:52.850Z,95596.30
2018-02-23T18:13:21.311Z,95593.47
2018-02-23T18:15:49.655Z,95596.27
2018-02-23T18:18:18.015Z,95602.86
2018-02-23T18:20:46.350Z,95607.59
2018-02-23T18:23:14.764Z,95606.32
2018-02-23T18:25:43.078Z,95609.09
2018-02-23T18:28:11.432Z,95605.26
2018-02-23T18:30:39.895Z,95604.34
2018-02-23T18:33:08.285Z,95606.70
2018-02-23T18:35:36.715Z,95606.56
2018-02-23T18:38:05.058Z,95599.52
2018-02-23T18:40:33.442Z,95604.71
2018-02-23T18:43:01.889Z,95595.17
2018-02-23T18:45:30.268Z,95608.58
2018-02-23T18:47:58.645Z,95610.25
2018-02-23T18:50:27.004Z,95607.96
2018-02-23T18:52:55.379Z,95614.56
2018-02-23T18:55:23.714Z,95612.44
2018-02-23T18:57:52.086Z,95612.78
2018-02-23T19:00:20.508Z,95609.70
2018-02-23T19:02:48.926Z,95624.42
2018-02-23T19:05:17.279Z,95620.03
2018-02-23T19:07:45.624Z,95626.21
2018-02-23T19:10:13.954Z,95621.91
2018-02-23T19:12:42.307Z,95621.33
2018-02-23T19:15:10.630Z,95614.02
2018-02-23T19:17:38.982Z,95622.97
2018-02-23T19:20:07.325Z,95620.88
2018-02-23T19:22:35.661Z,95621.30
2018-02-23T19:25:04.076Z,95626.80
2018-02-23T19:27:32.459Z,95622.20
2018-02-23T19:30:00.839Z,95631.80
2018-02-23T19:32:29.193Z,95623.95
2018-02-23T19:34:57.535Z,95623.56
2018-02-23T19:37:25.871Z,95628.46
2018-02-23T19:39:54.243Z,95628.89
2018-02-23T19:42:22.599Z,95633.58
2018-02-23T19:44:50.959Z,95635.29
2018-02-23T19:47:19.324Z,95633.97
2018-02-23T19:49:47.694Z,95636.63
2018-02-23T19:52:16.036Z,95632.99
2018-02-23T19:54:44.380Z,95638.02
2018-02-23T19:57:12.770Z,95637.28
2018-02-23T19:59:41.082Z,95642.52
2018-02-23T20:02:09.446Z,95643.34
2018-02-23T20:04:37.785Z,95637.40
2018-02-23T20:07:06.143Z,95636.92
2018-02-23T20:09:34.514Z,95631.08
2018-02-23T20:12:02.871Z,95640.41
2018-02-23T20:14:31.239Z,95635.79
2018-02-23T20:16:59.591Z,95638.32
2018-02-23T20:19:27.919Z,95641.41
2018-02-23T20:21:56.262Z,95642.08
2018-02-23T20:24:24.691Z,95649.66
2018-02-23T20:26:53.030Z,95649.44
2018-02-23T20:29:21.358Z,95642.46
2018-02-23T20:31:49.715Z,95645.36
2018-02-23T20:34:18.050Z,95646.75
2018-02-23T20:36:46.410Z,95650.73
2018-02-23T20:39:14.735Z,95649.44
2018-02-23T20:41:43.085Z,95645.22
2018-02-23T20:44:11.421Z,95650.98
2018-02-23T20:46:39.771Z,95644.63
2018-02-23T20:49:08.106Z,95647.44
2018-02-23T20:51:36.461Z,95645.39
2018-02-23T20:54:04.883Z,95654.22
2018-02-23T20:56:33.255Z,95647.03
2018-02-23T20:59:01.591Z,95642.07
2018-02-23T21:01:29.954Z,95640.00
2018-02-23T21:03:58.281Z,95630.08
2018-02-23T21:06:26.638Z,95631.47
2018-02-23T21:08:54.984Z,95633.41
2018-02-23T21:11:23.318Z,95634.51
2018-02-23T21:13:51.703Z,95637.77
2018-02-23T21:16:20.052Z,95627.91
2018-02-23T21:18:48.478Z,95625.67
2018-02-23T21:21:16.874Z,95638.57
2018-02-23T21:23:45.194Z,95630.72
2018-02-23T21:26:13.560Z,95634.20
2018-02-23T21:28:41.972Z,95638.54
2018-02-23T21:31:10.318Z,95635.31
2018-02-23T21:33:38.644Z,95638.98
2018-02-23T21:36:07.033Z,95637.44
2018-02-23T21:38:35.367Z,95633.69
2018-02-23T21:41:03.707Z,95639.87
2018-02-23T21:43:32.059Z,95628.59
2018-02-23T21:46:00.418Z,95626.69
2018-02-23T21:48:28.765Z,95637.17
2018-02-23T21:50:57.101Z,95637.13
2018-02-23T21:53:25.588Z,95636.41
2018-02-23T21:55:53.973Z,95631.06
2018-02-23T21:58:22.314Z,95628.56
2018-02-23T22:00:50.657Z,95630.70
2018-02-23T22:03:18.987Z,95631.73
2018-02-23T22:05:47.344Z,95623.75
2018-02-23T22:08:15.757Z,95627.14
2018-02-23T22:10:44.097Z,95630.52
2018-02-23T22:13:12.429Z,95634.19
2018-02-23T22:15:40.851Z,95633.92
2018-02-23T22:18:09.184Z,95639.06
2018-02-23T22:20:37.540Z,95641.39
2018-02-23T22:23:05.875Z,95648.22
2018-02-23T22:25:34.302Z,95642.38
2018-02-23T22:28:02.666Z,95638.39
2018-02-23T22:30:31.072Z,95637.02
2018-02-23T22:32:59.607Z,95643.28
2018-02-23T22:35:28.002Z,95642.07
2018-02-23T22:37:56.363Z,95643.40
2018-02-23T22:40:24.702Z,95642.06
2018-02-23T22:42:53.031Z,95641.28
2018-02-23T22:45:21.432Z,95637.77
2018-02-23T22:47:49.735Z,95635.84
2018-02-23T22:50:18.086Z,95639.09
2018-02-23T22:52:46.434Z,95646.52
2018-02-23T22:55:14.788Z,95644.57
2018-02-23T22:57:43.187Z,95639.95
2018-02-23T23:00:11.544Z,95640.91
2018-02-23T23:02:39.875Z,95632.31
2018-02-23T23:05:08.355Z,95638.78
2018-02-23T23:07:36.674Z,95633.45
2018-02-23T23:10:05.027Z,95632.80
2018-02-23T23:12:33.352Z,95625.31
2018-02-23T23:15:01.691Z,95635.32
2018-02-23T23:17:30.019Z,95644.51
2018-02-23T23:19:58.362Z,95646.86
2018-02-23T23:22:26.770Z,95649.41
2018-02-23T23:24:55.107Z,95642.81
2018-02-23T23:27:23.514Z,95641.67
2018-02-23T23:29:51.877Z,95643.54
2018-02-23T23:32:20.207Z,95642.24
2018-02-23T23:34:48.692Z,95651.31
2018-02-23T23:37:17.044Z,95640.47
2018-02-23T23:39:45.369Z,95648.27
2018-02-23T23:42:13.724Z,95643.03
2018-02-23T23:44:42.055Z,95643.28
2018-02-23T23:47:10.891Z,95644.87
2018-02-23T23:49:39.211Z,95653.30
2018-02-23T23:52:07.595Z,95651.75
2018-02-23T23:54:35.990Z,95661.70
2018-02-23T23:57:04.343Z,95657.34
2018-02-23T23:59:32.748Z,95656.94
